createdAt,value
2022-07-25T00:09:17.079Z,25.20
2022-07-25T00:19:22.319Z,26.30
2022-07-25T00:29:26.091Z,26.20
2022-07-25T00:39:31.369Z,26.00
2022-07-25T00:49:35.293Z,26.20
2022-07-25T00:59:40.643Z,26.70
2022-07-25T01:09:44.629Z,25.90
2022-07-25T01:19:51.610Z,25.50
2022-07-25T01:29:56.826Z,25.50
2022-07-25T01:40:00.818Z,25.30
2022-07-25T01:50:07.085Z,25.20
2022-07-25T02:00:14.600Z,24.80
2022-07-25T02:10:19.907Z,24.90
2022-07-25T02:20:23.875Z,24.80
2022-07-25T02:30:29.353Z,24.70
2022-07-25T02:40:33.265Z,24.50
2022-07-25T02:50:39.033Z,24.40
2022-07-25T03:00:44.359Z,24.20
2022-07-25T03:10:49.793Z,24.20
2022-07-25T03:20:53.694Z,24.10
2022-07-25T03:30:58.994Z,24.00
2022-07-25T03:41:02.848Z,23.90
2022-07-25T03:51:08.751Z,23.70
2022-07-25T04:01:12.590Z,23.70
2022-07-25T04:11:18.033Z,23.70
2022-07-25T04:21:22.266Z,23.70
2022-07-25T04:31:27.866Z,23.70
2022-07-25T04:41:31.629Z,23.70
2022-07-25T04:51:36.978Z,23.70
2022-07-25T05:01:40.873Z,23.80
2022-07-25T05:11:48.718Z,24.00
2022-07-25T05:21:55.459Z,24.00
2022-07-25T05:32:00.706Z,24.20
2022-07-25T05:42:04.591Z,24.30
2022-07-25T05:52:13.129Z,24.80
2022-07-25T06:02:17.362Z,25.40
2022-07-25T06:12:24.387Z,25.90
2022-07-25T06:22:28.927Z,26.40
2022-07-25T06:32:34.051Z,27.00
2022-07-25T06:42:40.620Z,27.40
2022-07-25T06:52:46.461Z,27.90
2022-07-25T07:02:52.232Z,28.50
2022-07-25T07:13:07.721Z,28.40
2022-07-25T07:23:11.834Z,28.40
2022-07-25T07:33:22.015Z,28.10
2022-07-25T07:43:30.102Z,28.20
2022-07-25T07:53:53.258Z,28.40
2022-07-25T08:03:57.043Z,28.10
2022-07-25T08:14:02.269Z,28.40
2022-07-25T08:24:07.163Z,28.50
2022-07-25T08:34:12.630Z,28.60
2022-07-25T08:44:18.755Z,28.50
2022-07-25T08:54:25.078Z,28.90
2022-07-25T09:04:29.598Z,28.90
2022-07-25T09:14:42.781Z,28.90
2022-07-25T09:24:47.367Z,29.20
2022-07-25T09:34:52.789Z,29.40
2022-07-25T09:45:01.784Z,29.70
2022-07-25T09:55:09.806Z,29.40
2022-07-25T10:05:16.874Z,29.60
2022-07-25T10:15:22.261Z,30.00
2022-07-25T10:25:26.143Z,29.70
2022-07-25T10:35:32.577Z,29.90
2022-07-25T10:45:41.274Z,30.00
2022-07-25T10:55:59.939Z,30.70
2022-07-25T11:06:09.934Z,30.80
2022-07-25T11:16:15.370Z,30.90
2022-07-25T11:26:19.993Z,31.20
2022-07-25T11:36:25.356Z,32.00
2022-07-25T11:46:29.125Z,31.80
2022-07-25T11:56:42.862Z,32.40
2022-07-25T12:06:48.633Z,32.40
2022-07-25T12:16:53.828Z,33.50
2022-07-25T12:26:59.208Z,32.70
2022-07-25T12:37:04.555Z,33.10
2022-07-25T12:47:08.712Z,33.90
2022-07-25T12:57:15.137Z,33.40
2022-07-25T13:07:18.908Z,35.00
2022-07-25T13:17:27.510Z,32.00
2022-07-25T13:27:31.756Z,32.80
2022-07-25T13:37:36.950Z,31.70
2022-07-25T13:47:40.634Z,32.60
2022-07-25T13:57:46.158Z,34.10
2022-07-25T14:07:50.864Z,34.00
2022-07-25T14:17:56.132Z,34.20
2022-07-25T14:28:01.851Z,33.10
2022-07-25T14:38:07.277Z,33.50
2022-07-25T14:48:11.487Z,34.80
2022-07-25T14:58:16.772Z,34.50
2022-07-25T15:08:20.770Z,34.10
2022-07-25T15:18:25.881Z,34.50
2022-07-25T15:28:29.658Z,32.60
2022-07-25T15:38:35.265Z,31.90
2022-07-25T15:48:39.255Z,31.70
2022-07-25T15:58:44.760Z,31.30
2022-07-25T16:08:50.418Z,30.80
2022-07-25T16:18:56.009Z,30.70
2022-07-25T16:28:59.820Z,30.50
2022-07-25T16:39:06.270Z,30.30
2022-07-25T16:49:10.899Z,30.00
2022-07-25T16:59:17.432Z,29.80
2022-07-25T17:09:21.230Z,29.60
2022-07-25T17:19:26.484Z,29.50
2022-07-25T17:29:30.355Z,29.20
2022-07-25T17:39:36.453Z,29.30
2022-07-25T17:49:40.200Z,29.20
2022-07-25T17:59:45.537Z,29.50
2022-07-25T18:09:49.210Z,29.20
2022-07-25T18:19:54.282Z,28.90
2022-07-25T18:29:58.140Z,28.90
2022-07-25T18:40:03.313Z,29.00
2022-07-25T18:50:08.262Z,28.80
2022-07-25T19:00:13.851Z,28.60
2022-07-25T19:10:17.684Z,28.50
2022-07-25T19:20:23.109Z,28.30
2022-07-25T19:30:27.251Z,28.20
2022-07-25T19:40:34.396Z,28.10
2022-07-25T19:50:38.219Z,27.80
2022-07-25T20:00:43.454Z,27.70
2022-07-25T20:10:48.008Z,27.60
2022-07-25T20:20:53.218Z,27.50
2022-07-25T20:30:57.729Z,27.50
2022-07-25T20:41:03.083Z,27.30
2022-07-25T20:51:07.065Z,27.20
2022-07-25T21:01:12.933Z,26.80
2022-07-25T21:11:16.827Z,26.70
2022-07-25T21:21:22.046Z,26.80
2022-07-25T21:31:25.890Z,26.80
2022-07-25T21:41:31.877Z,26.70
2022-07-25T21:51:40.406Z,26.60
2022-07-25T22:01:46.535Z,26.60
2022-07-25T22:11:50.738Z,26.40
2022-07-25T22:21:56.009Z,26.50
2022-07-25T22:32:00.459Z,26.50
2022-07-25T22:42:05.817Z,26.50
2022-07-25T22:52:09.945Z,26.50
2022-07-25T23:02:15.074Z,26.50
2022-07-25T23:12:18.812Z,26.60
2022-07-25T23:22:25.883Z,26.60
2022-07-25T23:32:29.718Z,26.50
2022-07-25T23:42:34.870Z,26.20
2022-07-25T23:52:39.283Z,25.90
